createdAt,value
2017-09-09T00:00:05.274Z,0
2017-09-09T00:01:06.964Z,0
2017-09-09T00:02:08.661Z,0
2017-09-09T00:03:10.385Z,0
2017-09-09T00:04:12.074Z,0
2017-09-09T00:05:13.770Z,0
2017-09-09T00:06:15.483Z,0
2017-09-09T00:07:17.187Z,0
2017-09-09T00:08:18.893Z,0
2017-09-09T00:09:20.601Z,0
2017-09-09T00:10:22.309Z,0
2017-09-09T00:11:24.023Z,0
2017-09-09T00:12:25.736Z,0
2017-09-09T00:13:27.460Z,0
2017-09-09T00:14:29.204Z,0
2017-09-09T00:15:30.914Z,0
2017-09-09T00:16:32.634Z,0
2017-09-09T00:17:34.333Z,0
2017-09-09T00:18:36.040Z,0
2017-09-09T00:19:37.743Z,0
2017-09-09T00:20:39.478Z,0
2017-09-09T00:21:41.175Z,0
2017-09-09T00:22:42.877Z,0
2017-09-09T00:23:44.585Z,0
2017-09-09T00:24:46.325Z,0
2017-09-09T00:25:48.051Z,0
2017-09-09T00:26:49.837Z,0
2017-09-09T00:27:51.520Z,0
2017-09-09T00:28:53.211Z,0
2017-09-09T00:29:54.911Z,0
2017-09-09T00:30:56.634Z,0
2017-09-09T00:31:58.328Z,0
2017-09-09T00:33:00.026Z,0
2017-09-09T00:34:01.741Z,0
2017-09-09T00:35:03.431Z,0
2017-09-09T00:36:05.182Z,0
2017-09-09T00:37:06.902Z,0
2017-09-09T00:38:08.623Z,0
2017-09-09T00:39:10.362Z,0
2017-09-09T00:40:12.096Z,0
2017-09-09T00:41:13.855Z,0
2017-09-09T00:42:15.584Z,0
2017-09-09T00:43:17.293Z,0
2017-09-09T00:44:19.009Z,0
2017-09-09T00:45:20.717Z,0
2017-09-09T00:46:22.433Z,0
2017-09-09T00:47:24.142Z,0
2017-09-09T00:48:25.879Z,0
2017-09-09T00:49:27.614Z,0
2017-09-09T00:50:29.331Z,0
2017-09-09T00:51:31.057Z,0
2017-09-09T00:52:32.757Z,0
2017-09-09T00:53:34.470Z,0
2017-09-09T00:54:36.188Z,0
2017-09-09T00:55:37.910Z,0
2017-09-09T00:56:39.623Z,0
2017-09-09T00:57:41.337Z,0
2017-09-09T00:58:43.042Z,0
2017-09-09T00:59:44.735Z,0
2017-09-09T01:00:46.437Z,0
2017-09-09T01:01:48.145Z,0
2017-09-09T01:02:49.831Z,0
2017-09-09T01:03:51.558Z,0
2017-09-09T01:04:53.308Z,0
2017-09-09T01:05:55.032Z,0
2017-09-09T01:06:56.803Z,0
2017-09-09T01:07:58.517Z,0
2017-09-09T01:09:00.217Z,0
2017-09-09T01:10:01.935Z,0
2017-09-09T01:11:03.657Z,0
2017-09-09T01:12:05.448Z,0
2017-09-09T01:13:07.162Z,0
2017-09-09T01:14:08.920Z,0
2017-09-09T01:15:10.643Z,0
2017-09-09T01:16:12.341Z,0
2017-09-09T01:17:14.103Z,0
2017-09-09T01:18:15.771Z,0
2017-09-09T01:19:17.503Z,0
2017-09-09T01:20:19.216Z,0
2017-09-09T01:21:20.929Z,0
2017-09-09T01:22:22.638Z,0
2017-09-09T01:23:24.364Z,0
2017-09-09T01:24:26.110Z,0
2017-09-09T01:25:27.815Z,0
2017-09-09T01:26:29.536Z,0
2017-09-09T01:27:31.261Z,0
2017-09-09T01:28:32.975Z,0
2017-09-09T01:29:34.710Z,0
2017-09-09T01:30:36.456Z,0
2017-09-09T01:31:38.158Z,0
2017-09-09T01:32:39.861Z,0
2017-09-09T01:33:41.617Z,0
2017-09-09T01:34:43.331Z,0
2017-09-09T01:35:45.045Z,0
2017-09-09T01:36:46.740Z,0
2017-09-09T01:37:48.465Z,0
2017-09-09T01:38:50.193Z,0
2017-09-09T01:39:51.922Z,0
2017-09-09T01:40:53.722Z,0
2017-09-09T01:41:55.423Z,0
2017-09-09T01:42:57.122Z,0
2017-09-09T01:43:58.890Z,0
2017-09-09T01:45:00.602Z,0
2017-09-09T01:46:02.309Z,0
2017-09-09T01:47:04.025Z,0
2017-09-09T01:48:05.824Z,0
2017-09-09T01:49:07.529Z,0
2017-09-09T01:50:09.237Z,0
2017-09-09T01:51:10.941Z,0
2017-09-09T01:52:12.634Z,0
2017-09-09T01:53:14.360Z,0
2017-09-09T01:54:16.083Z,0
2017-09-09T01:55:17.768Z,0
2017-09-09T01:56:19.489Z,0
2017-09-09T01:57:21.186Z,0
2017-09-09T01:58:22.889Z,0
2017-09-09T01:59:24.597Z,0
2017-09-09T02:00:26.385Z,0
2017-09-09T02:01:28.096Z,0
2017-09-09T02:02:29.794Z,0
2017-09-09T02:03:31.529Z,0
2017-09-09T02:04:33.254Z,0
2017-09-09T02:05:34.960Z,0
2017-09-09T02:06:36.683Z,0
2017-09-09T02:07:38.397Z,0
2017-09-09T02:08:40.128Z,0
2017-09-09T02:09:41.809Z,0
2017-09-09T02:10:43.520Z,0
2017-09-09T02:11:45.221Z,0
2017-09-09T02:12:46.943Z,0
2017-09-09T02:13:48.654Z,0
2017-09-09T02:14:50.379Z,0
2017-09-09T02:15:52.061Z,0
2017-09-09T02:16:53.808Z,0
2017-09-09T02:17:55.547Z,0
2017-09-09T02:18:57.257Z,0
2017-09-09T02:19:58.957Z,0
2017-09-09T02:21:00.668Z,0
2017-09-09T02:22:02.390Z,0
2017-09-09T02:23:04.113Z,0
2017-09-09T02:24:05.965Z,0
2017-09-09T02:25:07.673Z,0
2017-09-09T02:26:09.389Z,0
2017-09-09T02:27:11.084Z,0
2017-09-09T02:28:12.796Z,0
2017-09-09T02:29:14.509Z,0
2017-09-09T02:30:16.212Z,0
2017-09-09T02:31:18.768Z,0
2017-09-09T02:32:20.492Z,0
2017-09-09T02:33:22.172Z,0
2017-09-09T02:34:23.881Z,0
2017-09-09T02:35:25.607Z,0
2017-09-09T02:36:27.332Z,0
2017-09-09T02:37:29.064Z,0
2017-09-09T02:38:30.772Z,0
2017-09-09T02:39:32.470Z,0
2017-09-09T02:40:34.195Z,0
2017-09-09T02:41:36.004Z,0
2017-09-09T02:42:37.697Z,0
2017-09-09T02:43:39.453Z,0
2017-09-09T02:44:41.203Z,0
2017-09-09T02:45:42.927Z,0
2017-09-09T02:46:44.619Z,0
2017-09-09T02:47:46.389Z,0
2017-09-09T02:48:48.079Z,0
2017-09-09T02:49:49.803Z,0
2017-09-09T02:50:51.600Z,0
2017-09-09T02:51:53.292Z,0
2017-09-09T02:52:55.012Z,0
2017-09-09T02:53:56.748Z,0
2017-09-09T02:54:58.489Z,0
2017-09-09T02:56:00.191Z,0
2017-09-09T02:57:01.917Z,0
2017-09-09T02:58:03.641Z,0
2017-09-09T02:59:05.342Z,0
2017-09-09T03:00:07.065Z,0
2017-09-09T03:01:08.782Z,0
2017-09-09T03:02:10.496Z,0
2017-09-09T03:03:12.225Z,0
2017-09-09T03:04:13.938Z,0
2017-09-09T03:05:15.637Z,0
2017-09-09T03:06:17.369Z,0
2017-09-09T03:07:19.070Z,0
2017-09-09T03:08:20.795Z,0
2017-09-09T03:09:22.514Z,0
2017-09-09T03:10:24.207Z,0
2017-09-09T03:11:25.949Z,0
2017-09-09T03:12:27.660Z,0
2017-09-09T03:13:29.422Z,0
2017-09-09T03:14:31.142Z,0
2017-09-09T03:15:32.842Z,0
2017-09-09T03:16:34.549Z,0
2017-09-09T03:17:36.239Z,0
2017-09-09T03:18:37.957Z,0
2017-09-09T03:19:39.696Z,0
2017-09-09T03:20:41.404Z,0
2017-09-09T03:21:43.119Z,0
2017-09-09T03:22:44.832Z,0
2017-09-09T03:23:46.538Z,0
2017-09-09T03:24:48.258Z,0
2017-09-09T03:25:49.989Z,0
2017-09-09T03:26:51.699Z,0
2017-09-09T03:27:53.417Z,0
2017-09-09T03:28:55.133Z,0
2017-09-09T03:29:56.861Z,0
2017-09-09T03:30:58.554Z,0
2017-09-09T03:32:00.253Z,0
2017-09-09T03:33:01.934Z,0
2017-09-09T03:34:03.636Z,0
2017-09-09T03:35:05.350Z,0
2017-09-09T03:36:07.107Z,0
2017-09-09T03:37:08.822Z,0
2017-09-09T03:38:10.544Z,0
2017-09-09T03:39:12.257Z,0
2017-09-09T03:40:13.948Z,0
2017-09-09T03:41:15.681Z,0
2017-09-09T03:42:17.417Z,0
2017-09-09T03:43:19.077Z,0
2017-09-09T03:44:20.776Z,0
2017-09-09T03:45:22.512Z,0
2017-09-09T03:46:24.225Z,0
2017-09-09T03:47:26.004Z,0
2017-09-09T03:48:27.781Z,0
2017-09-09T03:49:29.490Z,0
2017-09-09T03:50:31.203Z,0
2017-09-09T03:51:32.900Z,0
2017-09-09T03:52:34.599Z,0
2017-09-09T03:53:36.303Z,0
2017-09-09T03:54:38.006Z,0
2017-09-09T03:55:39.765Z,0
2017-09-09T03:56:41.487Z,0
2017-09-09T03:57:43.188Z,0
2017-09-09T03:58:44.928Z,0
2017-09-09T03:59:46.626Z,0
2017-09-09T04:00:48.340Z,0
2017-09-09T04:01:50.077Z,0
2017-09-09T04:02:51.779Z,0
2017-09-09T04:03:53.479Z,0
2017-09-09T04:04:55.175Z,0
2017-09-09T04:05:56.865Z,0
2017-09-09T04:06:58.565Z,0
2017-09-09T04:08:00.286Z,0
2017-09-09T04:09:02.005Z,0
2017-09-09T04:10:03.710Z,0
2017-09-09T04:11:05.428Z,0
2017-09-09T04:12:07.247Z,0
2017-09-09T04:13:08.954Z,0
2017-09-09T04:14:10.656Z,0
2017-09-09T04:15:12.401Z,0
2017-09-09T04:16:14.131Z,0
2017-09-09T04:17:15.854Z,0
2017-09-09T04:18:17.574Z,0
2017-09-09T04:19:19.309Z,0
2017-09-09T04:20:21.042Z,0
2017-09-09T04:21:22.749Z,0
2017-09-09T04:22:24.462Z,0
2017-09-09T04:23:27.137Z,0
2017-09-09T04:24:28.835Z,0
2017-09-09T04:25:31.313Z,0
2017-09-09T04:26:33.016Z,0
2017-09-09T04:27:34.718Z,0
2017-09-09T04:28:36.480Z,0
2017-09-09T04:29:38.178Z,0
2017-09-09T04:30:39.912Z,0
2017-09-09T04:31:41.618Z,0
2017-09-09T04:32:43.320Z,0
2017-09-09T04:33:45.068Z,0
2017-09-09T04:34:46.797Z,0
2017-09-09T04:35:48.507Z,0
2017-09-09T04:36:50.225Z,0
2017-09-09T04:37:51.924Z,0
2017-09-09T04:38:53.656Z,0
2017-09-09T04:39:55.366Z,0
2017-09-09T04:40:57.100Z,0
2017-09-09T04:41:58.830Z,0
2017-09-09T04:43:00.547Z,0
2017-09-09T04:44:02.246Z,0
2017-09-09T04:45:03.986Z,0
2017-09-09T04:46:05.700Z,0
2017-09-09T04:47:07.528Z,0
2017-09-09T04:48:09.220Z,0
2017-09-09T04:49:10.934Z,0
2017-09-09T04:50:12.628Z,0
2017-09-09T04:51:14.331Z,0
2017-09-09T04:52:16.035Z,0
2017-09-09T04:53:17.744Z,0
2017-09-09T04:54:19.464Z,0
2017-09-09T04:55:21.166Z,0
2017-09-09T04:56:22.892Z,0
2017-09-09T04:57:24.596Z,0
2017-09-09T04:58:26.303Z,0
2017-09-09T04:59:28.052Z,0
2017-09-09T05:00:29.783Z,0
2017-09-09T05:01:31.511Z,0
2017-09-09T05:02:33.227Z,0
2017-09-09T05:03:34.931Z,0
2017-09-09T05:04:36.618Z,0
2017-09-09T05:05:38.329Z,0
2017-09-09T05:06:40.027Z,0
2017-09-09T05:07:41.766Z,0
2017-09-09T05:08:43.490Z,0
2017-09-09T05:09:45.242Z,0
2017-09-09T05:10:46.942Z,0
2017-09-09T05:11:48.666Z,0
2017-09-09T05:12:50.391Z,0
2017-09-09T05:13:52.100Z,0
2017-09-09T05:14:54.036Z,0
2017-09-09T05:15:55.741Z,0
2017-09-09T05:16:57.470Z,0
2017-09-09T05:17:59.187Z,0
2017-09-09T05:19:00.882Z,0
2017-09-09T05:20:02.613Z,0
2017-09-09T05:21:04.326Z,0
2017-09-09T05:22:06.041Z,0
2017-09-09T05:23:07.821Z,0
2017-09-09T05:24:09.530Z,0
2017-09-09T05:25:11.238Z,0
2017-09-09T05:26:12.918Z,0
2017-09-09T05:27:14.638Z,0
2017-09-09T05:28:16.344Z,0
2017-09-09T05:29:18.033Z,0
2017-09-09T05:30:19.742Z,0
2017-09-09T05:31:21.453Z,0
2017-09-09T05:32:23.272Z,0
2017-09-09T05:33:24.977Z,0
2017-09-09T05:34:26.673Z,0
2017-09-09T05:35:28.411Z,0
2017-09-09T05:36:30.122Z,0
2017-09-09T05:37:31.848Z,0
2017-09-09T05:38:33.546Z,0
2017-09-09T05:39:35.244Z,0
2017-09-09T05:40:36.909Z,0
2017-09-09T05:41:38.627Z,0
2017-09-09T05:42:40.337Z,0
2017-09-09T05:43:42.041Z,0
2017-09-09T05:44:43.780Z,0
2017-09-09T05:45:45.486Z,0
2017-09-09T05:46:47.201Z,0
2017-09-09T05:47:48.915Z,0
2017-09-09T05:48:50.700Z,0
2017-09-09T05:49:52.422Z,0
2017-09-09T05:50:54.111Z,4
2017-09-09T05:51:55.831Z,4
2017-09-09T05:52:57.593Z,4
2017-09-09T05:53:59.317Z,4
2017-09-09T05:55:01.012Z,4
2017-09-09T05:56:02.721Z,4
2017-09-09T05:57:04.420Z,8
2017-09-09T05:58:06.119Z,12
2017-09-09T05:59:07.849Z,12
2017-09-09T06:00:09.569Z,16
2017-09-09T06:01:11.275Z,20
2017-09-09T06:02:12.997Z,28
2017-09-09T06:03:14.725Z,36
2017-09-09T06:04:16.436Z,44
2017-09-09T06:05:18.126Z,52
2017-09-09T06:06:19.856Z,56
2017-09-09T06:07:21.598Z,64
2017-09-09T06:08:23.329Z,72
2017-09-09T06:09:25.036Z,76
2017-09-09T06:10:26.749Z,92
2017-09-09T06:11:28.472Z,100
2017-09-09T06:12:30.192Z,116
2017-09-09T06:13:31.908Z,120
2017-09-09T06:14:33.637Z,132
2017-09-09T06:15:35.399Z,152
2017-09-09T06:16:37.108Z,164
2017-09-09T06:17:38.828Z,184
2017-09-09T06:18:40.532Z,204
2017-09-09T06:19:42.263Z,192
2017-09-09T06:20:43.996Z,200
2017-09-09T06:21:45.680Z,220
2017-09-09T06:22:47.389Z,236
2017-09-09T06:23:49.086Z,260
2017-09-09T06:24:50.795Z,292
2017-09-09T06:25:52.550Z,336
2017-09-09T06:26:54.275Z,372
2017-09-09T06:27:55.973Z,388
2017-09-09T06:28:57.693Z,416
2017-09-09T06:29:59.437Z,452
2017-09-09T06:31:01.159Z,456
2017-09-09T06:32:02.880Z,468
2017-09-09T06:33:04.709Z,468
2017-09-09T06:34:06.440Z,456
2017-09-09T06:35:08.167Z,492
2017-09-09T06:36:09.900Z,556
2017-09-09T06:37:11.614Z,588
2017-09-09T06:38:13.344Z,640
2017-09-09T06:39:15.107Z,628
2017-09-09T06:40:16.804Z,656
2017-09-09T06:41:18.510Z,760
2017-09-09T06:42:20.241Z,800
2017-09-09T06:43:21.938Z,864
2017-09-09T06:44:23.664Z,940
2017-09-09T06:45:25.384Z,948
2017-09-09T06:46:27.086Z,900
2017-09-09T06:47:28.762Z,936
2017-09-09T06:48:30.468Z,1076
2017-09-09T06:49:32.214Z,1068
2017-09-09T06:50:33.928Z,1268
2017-09-09T06:51:35.635Z,1004
2017-09-09T06:52:37.393Z,972
2017-09-09T06:53:39.111Z,968
2017-09-09T06:54:40.816Z,948
2017-09-09T06:55:42.524Z,1072
2017-09-09T06:56:44.213Z,1028
2017-09-09T06:57:45.957Z,1068
2017-09-09T06:58:47.650Z,1008
2017-09-09T06:59:49.345Z,1272
2017-09-09T07:00:51.076Z,1496
2017-09-09T07:01:52.792Z,1440
2017-09-09T07:02:54.559Z,1556
2017-09-09T07:03:56.248Z,1600
2017-09-09T07:04:57.965Z,1620
2017-09-09T07:05:59.683Z,1528
2017-09-09T07:07:01.419Z,1680
2017-09-09T07:08:03.131Z,1636
2017-09-09T07:09:04.870Z,1600
2017-09-09T07:10:06.602Z,1684
2017-09-09T07:11:08.324Z,1756
2017-09-09T07:12:10.089Z,1820
2017-09-09T07:13:11.907Z,1876
2017-09-09T07:14:13.608Z,1972
2017-09-09T07:15:15.345Z,2060
2017-09-09T07:16:17.160Z,2140
2017-09-09T07:17:18.857Z,2220
2017-09-09T07:18:20.580Z,2344
2017-09-09T07:19:22.308Z,2472
2017-09-09T07:20:24.007Z,2600
2017-09-09T07:21:25.715Z,2740
2017-09-09T07:22:27.433Z,2880
2017-09-09T07:23:29.154Z,3092
2017-09-09T07:24:30.876Z,3232
2017-09-09T07:25:32.623Z,3276
2017-09-09T07:26:34.412Z,3288
2017-09-09T07:27:36.112Z,3344
2017-09-09T07:28:37.868Z,3288
2017-09-09T07:29:39.646Z,3220
2017-09-09T07:30:41.389Z,3184
2017-09-09T07:31:43.115Z,3192
2017-09-09T07:32:44.866Z,3208
2017-09-09T07:33:46.587Z,3256
2017-09-09T07:34:48.336Z,3348
2017-09-09T07:35:50.041Z,3596
2017-09-09T07:36:51.764Z,3548
2017-09-09T07:37:53.519Z,3884
2017-09-09T07:38:55.232Z,4360
2017-09-09T07:39:56.925Z,4732
2017-09-09T07:40:58.632Z,4412
2017-09-09T07:42:00.389Z,4516
2017-09-09T07:43:02.205Z,4644
2017-09-09T07:44:03.924Z,4604
2017-09-09T07:45:05.669Z,4528
2017-09-09T07:46:07.440Z,4600
2017-09-09T07:47:09.180Z,4524
2017-09-09T07:48:10.899Z,4568
2017-09-09T07:49:12.607Z,4840
2017-09-09T07:50:14.359Z,5044
2017-09-09T07:51:16.070Z,4960
2017-09-09T07:52:17.807Z,5232
2017-09-09T07:53:19.518Z,5204
2017-09-09T07:54:21.230Z,4984
2017-09-09T07:55:22.986Z,5168
2017-09-09T07:56:24.699Z,5108
2017-09-09T07:57:26.417Z,5036
2017-09-09T07:58:28.132Z,4720
2017-09-09T07:59:29.855Z,4516
2017-09-09T08:00:31.581Z,4344
2017-09-09T08:01:33.357Z,4188
2017-09-09T08:02:35.072Z,4156
2017-09-09T08:03:36.781Z,4112
2017-09-09T08:04:38.492Z,4088
2017-09-09T08:05:40.223Z,4108
2017-09-09T08:06:42.001Z,4112
2017-09-09T08:07:43.774Z,4096
2017-09-09T08:08:45.500Z,4076
2017-09-09T08:09:47.409Z,4044
2017-09-09T08:10:49.123Z,4036
2017-09-09T08:11:50.820Z,4264
2017-09-09T08:12:52.534Z,4224
2017-09-09T08:13:54.281Z,4240
2017-09-09T08:14:55.996Z,4152
2017-09-09T08:15:57.694Z,4044
2017-09-09T08:16:59.396Z,3988
2017-09-09T08:18:01.096Z,4068
2017-09-09T08:19:02.820Z,4108
2017-09-09T08:20:04.560Z,4032
2017-09-09T08:21:06.306Z,3760
2017-09-09T08:22:08.060Z,4048
2017-09-09T08:23:09.849Z,3972
2017-09-09T08:24:11.580Z,3972
2017-09-09T08:25:13.304Z,3988
2017-09-09T08:26:15.023Z,3988
2017-09-09T08:27:16.755Z,3980
2017-09-09T08:28:18.471Z,4056
2017-09-09T08:29:20.184Z,4108
2017-09-09T08:30:21.934Z,3968
2017-09-09T08:31:23.664Z,3892
2017-09-09T08:32:25.372Z,3880
2017-09-09T08:33:27.081Z,3932
2017-09-09T08:34:28.857Z,3964
2017-09-09T08:35:30.581Z,3988
2017-09-09T08:36:32.300Z,3908
2017-09-09T08:37:34.011Z,3852
2017-09-09T08:38:35.711Z,3776
2017-09-09T08:39:37.399Z,3748
2017-09-09T08:40:39.105Z,3684
2017-09-09T08:41:40.830Z,3652
2017-09-09T08:42:42.537Z,3616
2017-09-09T08:43:44.260Z,3600
2017-09-09T08:44:45.986Z,3572
2017-09-09T08:45:47.682Z,3548
2017-09-09T08:46:49.393Z,3536
2017-09-09T08:47:51.098Z,3528
2017-09-09T08:48:52.813Z,3520
2017-09-09T08:49:54.533Z,3512
2017-09-09T08:50:56.249Z,3520
2017-09-09T08:51:57.965Z,3520
2017-09-09T08:52:59.686Z,3516
2017-09-09T08:54:01.444Z,3512
2017-09-09T08:55:03.163Z,3524
2017-09-09T08:56:04.883Z,3520
2017-09-09T08:57:06.616Z,3524
2017-09-09T08:58:08.352Z,3524
2017-09-09T08:59:10.104Z,3532
2017-09-09T09:00:11.817Z,3536
2017-09-09T09:01:13.557Z,3540
2017-09-09T09:02:15.249Z,3536
2017-09-09T09:03:16.986Z,3548
2017-09-09T09:04:18.708Z,3544
2017-09-09T09:05:20.453Z,3548
2017-09-09T09:06:22.166Z,3556
2017-09-09T09:07:23.880Z,3556
2017-09-09T09:08:25.587Z,3560
2017-09-09T09:09:27.299Z,3576
2017-09-09T09:10:29.019Z,3600
2017-09-09T09:11:30.722Z,3620
2017-09-09T09:12:32.424Z,3652
2017-09-09T09:13:34.135Z,3684
2017-09-09T09:14:35.844Z,3724
2017-09-09T09:15:37.549Z,3780
2017-09-09T09:16:39.252Z,3784
2017-09-09T09:17:40.968Z,3780
2017-09-09T09:18:42.674Z,3764
2017-09-09T09:19:44.406Z,3740
2017-09-09T09:20:46.128Z,3732
2017-09-09T09:21:47.853Z,3740
2017-09-09T09:22:49.551Z,3756
2017-09-09T09:23:51.250Z,3772
2017-09-09T09:24:52.951Z,3780
2017-09-09T09:25:54.672Z,3792
2017-09-09T09:26:56.366Z,3784
2017-09-09T09:27:58.078Z,3808
2017-09-09T09:28:59.781Z,3812
2017-09-09T09:30:01.524Z,3812
2017-09-09T09:31:03.235Z,3824
2017-09-09T09:32:04.919Z,3856
2017-09-09T09:33:06.634Z,3872
2017-09-09T09:34:08.336Z,3880
2017-09-09T09:35:10.041Z,3912
2017-09-09T09:36:11.792Z,3924
2017-09-09T09:37:13.515Z,4040
2017-09-09T09:38:15.225Z,4016
2017-09-09T09:39:16.913Z,3936
2017-09-09T09:40:18.624Z,4516
2017-09-09T09:41:20.341Z,3940
2017-09-09T09:42:22.071Z,3856
2017-09-09T09:43:23.866Z,4108
2017-09-09T09:44:25.614Z,4664
2017-09-09T09:45:27.334Z,4756
2017-09-09T09:46:29.039Z,4796
2017-09-09T09:47:30.729Z,5196
2017-09-09T09:48:32.428Z,4496
2017-09-09T09:49:34.159Z,4708
2017-09-09T09:50:35.889Z,4516
2017-09-09T09:51:37.631Z,4440
2017-09-09T09:52:39.383Z,4460
2017-09-09T09:53:41.108Z,4360
2017-09-09T09:54:42.836Z,4164
2017-09-09T09:55:44.578Z,4312
2017-09-09T09:56:46.305Z,4360
2017-09-09T09:57:48.018Z,4356
2017-09-09T09:58:49.726Z,4308
2017-09-09T09:59:51.530Z,4500
2017-09-09T10:00:53.248Z,4416
2017-09-09T10:01:54.964Z,4420
2017-09-09T10:02:56.662Z,4920
2017-09-09T10:03:58.376Z,5204
2017-09-09T10:05:00.101Z,4740
2017-09-09T10:06:01.838Z,4852
2017-09-09T10:07:03.549Z,4764
2017-09-09T10:08:05.259Z,4956
2017-09-09T10:09:06.985Z,4760
2017-09-09T10:10:08.726Z,4744
2017-09-09T10:11:10.394Z,4792
2017-09-09T10:12:12.925Z,4864
2017-09-09T10:13:14.644Z,5204
2017-09-09T10:14:16.334Z,5356
2017-09-09T10:15:18.082Z,5496
2017-09-09T10:16:19.764Z,6008
2017-09-09T10:17:21.522Z,6584
2017-09-09T10:18:23.239Z,7224
2017-09-09T10:19:24.939Z,8240
2017-09-09T10:20:26.672Z,9056
2017-09-09T10:21:28.377Z,10260
2017-09-09T10:22:30.114Z,11200
2017-09-09T10:23:31.821Z,11864
2017-09-09T10:24:33.536Z,12140
2017-09-09T10:25:35.272Z,12400
2017-09-09T10:26:36.953Z,12108
2017-09-09T10:27:38.696Z,12064
2017-09-09T10:28:40.422Z,11964
2017-09-09T10:29:42.134Z,12616
2017-09-09T10:30:43.857Z,13472
2017-09-09T10:31:45.557Z,13664
2017-09-09T10:32:47.274Z,13596
2017-09-09T10:33:48.983Z,13348
2017-09-09T10:34:50.701Z,13548
2017-09-09T10:35:52.414Z,13588
2017-09-09T10:36:54.116Z,12664
2017-09-09T10:37:55.865Z,12872
2017-09-09T10:38:57.595Z,11860
2017-09-09T10:39:59.295Z,11524
2017-09-09T10:41:01.013Z,11520
2017-09-09T10:42:02.741Z,12308
2017-09-09T10:43:04.469Z,12572
2017-09-09T10:44:06.176Z,13160
2017-09-09T10:45:07.891Z,13256
2017-09-09T10:46:09.599Z,14084
2017-09-09T10:47:11.342Z,13568
2017-09-09T10:48:13.067Z,14048
2017-09-09T10:49:14.805Z,14132
2017-09-09T10:50:16.529Z,14464
2017-09-09T10:51:18.254Z,14536
2017-09-09T10:52:19.966Z,14752
2017-09-09T10:53:21.681Z,15064
2017-09-09T10:54:23.410Z,15236
2017-09-09T10:55:25.145Z,15724
2017-09-09T10:56:26.870Z,16288
2017-09-09T10:57:28.587Z,16756
2017-09-09T10:58:30.289Z,16992
2017-09-09T10:59:32.014Z,17088
2017-09-09T11:00:33.729Z,16720
2017-09-09T11:01:35.458Z,15916
2017-09-09T11:02:37.171Z,15856
2017-09-09T11:03:38.873Z,15248
2017-09-09T11:04:40.566Z,15716
2017-09-09T11:05:42.254Z,16228
2017-09-09T11:06:43.972Z,16612
2017-09-09T11:07:45.694Z,16564
2017-09-09T11:08:47.386Z,16148
2017-09-09T11:09:49.195Z,15888
2017-09-09T11:10:50.944Z,15724
2017-09-09T11:11:52.668Z,15484
2017-09-09T11:12:54.383Z,15892
2017-09-09T11:13:56.122Z,16632
2017-09-09T11:14:57.832Z,16664
2017-09-09T11:15:59.550Z,16304
2017-09-09T11:17:01.250Z,17184
2017-09-09T11:18:02.990Z,17696
2017-09-09T11:19:04.687Z,17920
2017-09-09T11:20:06.402Z,17472
2017-09-09T11:21:08.122Z,16504
2017-09-09T11:22:09.830Z,16052
2017-09-09T11:23:11.540Z,15888
2017-09-09T11:24:13.272Z,16144
2017-09-09T11:25:15.014Z,16592
2017-09-09T11:26:16.725Z,17472
2017-09-09T11:27:18.440Z,18240
2017-09-09T11:28:20.191Z,18080
2017-09-09T11:29:21.932Z,16448
2017-09-09T11:30:23.637Z,15696
2017-09-09T11:31:25.367Z,15524
2017-09-09T11:32:27.117Z,15936
2017-09-09T11:33:28.838Z,17312
2017-09-09T11:34:30.547Z,18560
2017-09-09T11:35:32.258Z,18752
2017-09-09T11:36:34.010Z,18880
2017-09-09T11:37:35.708Z,19712
2017-09-09T11:38:37.408Z,17952
2017-09-09T11:39:39.146Z,17312
2017-09-09T11:40:40.853Z,16260
2017-09-09T11:41:42.566Z,16772
2017-09-09T11:42:44.259Z,17952
2017-09-09T11:43:45.992Z,19552
2017-09-09T11:44:47.707Z,17632
2017-09-09T11:45:49.433Z,16112
2017-09-09T11:46:51.143Z,15028
2017-09-09T11:47:52.880Z,14980
2017-09-09T11:48:54.603Z,15148
2017-09-09T11:49:56.309Z,15388
2017-09-09T11:50:58.104Z,14020
2017-09-09T11:51:59.828Z,17344
2017-09-09T11:53:01.599Z,19296
2017-09-09T11:54:03.317Z,19104
2017-09-09T11:55:05.034Z,19168
2017-09-09T11:56:06.774Z,17568
2017-09-09T11:57:08.490Z,18624
2017-09-09T11:58:10.203Z,19200
2017-09-09T11:59:11.897Z,20384
2017-09-09T12:00:13.596Z,19616
2017-09-09T12:01:15.319Z,20320
2017-09-09T12:02:17.107Z,29888
2017-09-09T12:03:18.837Z,33856
2017-09-09T12:04:20.586Z,33888
2017-09-09T12:05:22.331Z,34720
2017-09-09T12:06:24.054Z,32064
2017-09-09T12:07:25.863Z,33472
2017-09-09T12:08:27.613Z,28576
2017-09-09T12:09:29.335Z,31488
2017-09-09T12:10:31.080Z,31872
2017-09-09T12:11:32.854Z,31200
2017-09-09T12:12:34.616Z,29120
2017-09-09T12:13:36.349Z,26784
2017-09-09T12:14:38.103Z,28192
2017-09-09T12:15:39.910Z,29088
2017-09-09T12:16:41.780Z,29408
2017-09-09T12:17:43.536Z,31328
2017-09-09T12:18:45.416Z,30752
2017-09-09T12:19:47.159Z,29120
2017-09-09T12:20:48.909Z,30240
2017-09-09T12:21:50.643Z,29664
2017-09-09T12:22:52.360Z,24576
2017-09-09T12:23:54.108Z,28576
2017-09-09T12:24:55.900Z,32320
2017-09-09T12:25:57.627Z,34528
2017-09-09T12:26:59.364Z,35456
2017-09-09T12:28:01.144Z,36160
2017-09-09T12:29:02.891Z,36320
2017-09-09T12:30:04.631Z,37248
2017-09-09T12:31:06.380Z,36768
2017-09-09T12:32:08.108Z,36192
2017-09-09T12:33:09.836Z,35712
2017-09-09T12:34:11.570Z,35552
2017-09-09T12:35:13.386Z,33952
2017-09-09T12:36:15.109Z,33568
2017-09-09T12:37:16.848Z,35072
2017-09-09T12:38:18.593Z,34464
2017-09-09T12:39:20.309Z,32224
2017-09-09T12:40:22.029Z,33696
2017-09-09T12:41:23.765Z,34272
2017-09-09T12:42:25.587Z,36288
2017-09-09T12:43:27.355Z,34432
2017-09-09T12:44:29.085Z,34432
2017-09-09T12:45:30.802Z,31744
2017-09-09T12:46:32.533Z,35424
2017-09-09T12:47:34.277Z,34176
2017-09-09T12:48:36.009Z,35296
2017-09-09T12:49:37.778Z,35616
2017-09-09T12:50:39.539Z,36960
2017-09-09T12:51:41.267Z,34560
2017-09-09T12:52:42.987Z,36448
2017-09-09T12:53:44.718Z,37184
2017-09-09T12:54:46.529Z,36352
2017-09-09T12:55:48.246Z,37088
2017-09-09T12:56:49.953Z,38016
2017-09-09T12:57:51.715Z,39328
2017-09-09T12:58:53.468Z,39648
2017-09-09T12:59:55.180Z,41408
2017-09-09T13:00:56.916Z,41856
2017-09-09T13:01:58.677Z,41344
2017-09-09T13:03:00.431Z,42144
2017-09-09T13:04:02.159Z,41280
2017-09-09T13:05:03.948Z,42560
2017-09-09T13:06:05.643Z,44032
2017-09-09T13:07:07.374Z,43168
2017-09-09T13:08:09.100Z,43168
2017-09-09T13:09:10.813Z,44640
2017-09-09T13:10:12.523Z,42816
2017-09-09T13:11:14.289Z,46368
2017-09-09T13:12:16.017Z,44448
2017-09-09T13:13:17.730Z,42944
2017-09-09T13:14:19.477Z,46976
2017-09-09T13:15:21.222Z,49184
2017-09-09T13:16:22.980Z,53056
2017-09-09T13:17:24.691Z,57952
2017-09-09T13:18:26.425Z,59008
2017-09-09T13:19:28.201Z,53952
2017-09-09T13:20:29.934Z,51936
2017-09-09T13:21:31.690Z,54688
2017-09-09T13:22:33.421Z,53056
2017-09-09T13:23:35.155Z,55424
2017-09-09T13:24:36.961Z,56160
2017-09-09T13:25:38.712Z,25312
2017-09-09T13:26:40.444Z,58432
2017-09-09T13:27:42.182Z,62816
2017-09-09T13:28:43.913Z,76064
2017-09-09T13:29:45.650Z,98240
2017-09-09T13:30:47.394Z,113600
2017-09-09T13:31:49.116Z,128320
2017-09-09T13:32:50.838Z,140128
2017-09-09T13:33:52.579Z,147808
2017-09-09T13:34:54.508Z,154208
2017-09-09T13:35:56.305Z,135264
2017-09-09T13:36:58.044Z,118080
2017-09-09T13:37:59.771Z,116640
2017-09-09T13:39:01.523Z,98784
2017-09-09T13:40:03.275Z,116768
2017-09-09T13:41:04.979Z,122112
2017-09-09T13:42:06.770Z,96480
2017-09-09T13:43:08.497Z,60064
2017-09-09T13:44:10.234Z,33024
2017-09-09T13:45:11.962Z,25568
2017-09-09T13:46:13.728Z,23136
2017-09-09T13:47:15.470Z,22784
2017-09-09T13:48:17.177Z,22336
2017-09-09T13:49:18.904Z,21824
2017-09-09T13:50:20.641Z,21760
2017-09-09T13:51:22.383Z,21728
2017-09-09T13:52:24.155Z,22240
2017-09-09T13:53:25.841Z,22176
2017-09-09T13:54:27.582Z,22432
2017-09-09T13:55:29.280Z,21888
2017-09-09T13:56:30.998Z,30880
2017-09-09T13:57:32.705Z,75264
2017-09-09T13:58:34.465Z,98912
2017-09-09T13:59:36.217Z,80032
2017-09-09T14:00:37.966Z,47456
2017-09-09T14:01:39.679Z,23776
2017-09-09T14:02:41.387Z,23680
2017-09-09T14:03:43.090Z,22912
2017-09-09T14:04:44.810Z,22624
2017-09-09T14:05:46.524Z,21184
2017-09-09T14:06:48.232Z,20000
2017-09-09T14:07:49.939Z,21312
2017-09-09T14:08:51.663Z,22208
2017-09-09T14:09:53.413Z,22400
2017-09-09T14:10:55.116Z,20832